createdAt,value
2018-09-18T00:04:05.883Z,3.55
2018-09-18T00:08:59.139Z,4.28
2018-09-18T00:13:52.551Z,3.40
2018-09-18T00:18:45.898Z,3.98
2018-09-18T00:23:39.222Z,3.80
2018-09-18T00:28:32.589Z,3.90
2018-09-18T00:33:25.846Z,3.87
2018-09-18T00:38:19.846Z,3.83
2018-09-18T00:43:13.236Z,4.00
2018-09-18T00:48:06.509Z,3.80
2018-09-18T00:52:59.851Z,4.05
2018-09-18T00:57:53.155Z,3.92
2018-09-18T01:02:46.387Z,3.67
2018-09-18T01:07:39.859Z,3.87
2018-09-18T01:12:33.113Z,3.90
2018-09-18T01:17:26.345Z,3.87
2018-09-18T01:22:19.593Z,4.17
2018-09-18T01:27:12.866Z,4.03
2018-09-18T01:32:06.223Z,4.00
2018-09-18T01:36:59.451Z,4.45
2018-09-18T01:41:52.732Z,3.90
2018-09-18T01:46:45.992Z,4.47
2018-09-18T01:51:39.347Z,3.72
2018-09-18T01:56:32.666Z,4.40
2018-09-18T02:01:25.966Z,3.90
2018-09-18T02:06:19.180Z,4.05
2018-09-18T02:11:13.425Z,3.75
2018-09-18T02:16:06.706Z,3.98
2018-09-18T02:20:59.932Z,3.90
2018-09-18T02:25:53.277Z,3.87
2018-09-18T02:30:46.790Z,4.10
2018-09-18T02:35:40.172Z,4.15
2018-09-18T02:40:33.408Z,3.77
2018-09-18T02:45:27.160Z,4.17
2018-09-18T02:50:20.405Z,4.00
2018-09-18T02:55:13.656Z,4.10
2018-09-18T03:00:06.985Z,3.85
2018-09-18T03:05:00.238Z,4.05
2018-09-18T03:09:53.478Z,4.00
2018-09-18T03:14:46.721Z,4.03
2018-09-18T03:19:39.927Z,3.25
2018-09-18T03:24:33.140Z,3.80
2018-09-18T03:29:26.403Z,3.90
2018-09-18T03:34:19.666Z,3.58
2018-09-18T03:39:12.922Z,3.80
2018-09-18T03:44:06.216Z,4.20
2018-09-18T03:49:00.130Z,3.70
2018-09-18T03:53:53.665Z,3.80
2018-09-18T03:58:46.915Z,3.95
2018-09-18T04:03:40.178Z,4.08
2018-09-18T04:08:33.508Z,4.28
2018-09-18T04:13:26.764Z,3.80
2018-09-18T04:18:22.635Z,4.72
2018-09-18T04:23:15.927Z,3.58
2018-09-18T04:28:09.223Z,4.20
2018-09-18T04:33:02.449Z,4.17
2018-09-18T04:37:55.689Z,4.30
2018-09-18T04:42:49.021Z,4.10
2018-09-18T04:47:42.807Z,3.83
2018-09-18T04:52:36.091Z,4.25
2018-09-18T04:57:29.379Z,4.10
2018-09-18T05:02:22.723Z,3.77
2018-09-18T05:07:16.021Z,4.37
2018-09-18T05:12:09.267Z,3.87
2018-09-18T05:17:02.491Z,3.75
2018-09-18T05:21:55.830Z,4.45
2018-09-18T05:26:49.070Z,4.05
2018-09-18T05:31:42.294Z,4.03
2018-09-18T05:36:35.548Z,4.28
2018-09-18T05:41:28.769Z,4.10
2018-09-18T05:46:22.043Z,4.10
2018-09-18T05:51:15.424Z,4.50
2018-09-18T05:56:08.797Z,3.60
2018-09-18T06:01:02.040Z,4.10
2018-09-18T06:05:56.227Z,4.22
2018-09-18T06:10:50.091Z,4.15
2018-09-18T06:15:43.356Z,4.42
2018-09-18T06:20:36.643Z,3.90
2018-09-18T06:25:29.879Z,3.72
2018-09-18T06:30:23.127Z,4.22
2018-09-18T06:35:16.428Z,3.65
2018-09-18T06:40:09.691Z,3.62
2018-09-18T06:45:03.571Z,3.55
2018-09-18T06:49:56.824Z,3.62
2018-09-18T06:54:50.095Z,3.70
2018-09-18T06:59:43.351Z,3.55
2018-09-18T07:04:36.582Z,3.67
2018-09-18T07:09:29.816Z,3.70
2018-09-18T07:14:23.078Z,3.47
2018-09-18T07:19:16.931Z,3.47
2018-09-18T07:24:10.174Z,3.60
2018-09-18T07:29:03.419Z,3.52
2018-09-18T07:33:57.311Z,3.20
2018-09-18T07:38:50.614Z,3.83
2018-09-18T07:43:43.876Z,3.37
2018-09-18T07:48:38.069Z,3.50
2018-09-18T07:53:31.743Z,3.83
2018-09-18T07:58:25.037Z,3.20
2018-09-18T08:03:18.447Z,4.15
2018-09-18T08:08:11.649Z,3.62
2018-09-18T08:13:05.194Z,3.85
2018-09-18T08:17:58.563Z,3.40
2018-09-18T08:22:51.815Z,3.30
2018-09-18T08:27:45.110Z,3.80
2018-09-18T08:32:39.065Z,3.70
2018-09-18T08:37:32.389Z,3.60
2018-09-18T08:42:25.697Z,3.85
2018-09-18T08:47:19.074Z,3.65
2018-09-18T08:52:13.286Z,4.20
2018-09-18T08:57:06.764Z,3.75
2018-09-18T09:02:00.058Z,3.27
2018-09-18T09:06:53.296Z,3.98
2018-09-18T09:11:46.597Z,3.40
2018-09-18T09:16:40.539Z,3.60
2018-09-18T09:21:33.813Z,3.62
2018-09-18T09:26:27.728Z,3.30
2018-09-18T09:31:23.471Z,3.62
2018-09-18T09:36:19.522Z,3.72
2018-09-18T09:41:12.803Z,3.77
2018-09-18T09:46:06.106Z,3.77
2018-09-18T09:51:00.445Z,3.87
2018-09-18T09:55:53.705Z,4.08
2018-09-18T10:00:52.407Z,3.52
2018-09-18T10:05:45.668Z,3.75
2018-09-18T10:10:39.646Z,4.08
2018-09-18T10:15:32.918Z,3.90
2018-09-18T10:20:26.133Z,3.80
2018-09-18T10:25:19.424Z,4.40
2018-09-18T10:30:12.709Z,3.90
2018-09-18T10:35:06.069Z,4.20
2018-09-18T10:39:59.328Z,4.45
2018-09-18T10:44:52.668Z,4.80
2018-09-18T10:49:45.913Z,4.47
2018-09-18T10:54:39.270Z,5.08
2018-09-18T10:59:32.662Z,4.80
2018-09-18T11:04:26.542Z,4.90
2018-09-18T11:09:19.953Z,4.20
2018-09-18T11:14:13.343Z,4.08
2018-09-18T11:19:06.740Z,4.03
2018-09-18T11:24:00.017Z,4.75
2018-09-18T11:28:53.310Z,3.95
2018-09-18T11:33:46.575Z,3.80
2018-09-18T11:38:40.484Z,3.40
2018-09-18T11:43:33.721Z,3.27
2018-09-18T11:48:26.998Z,3.40
2018-09-18T11:53:20.316Z,3.33
2018-09-18T11:58:13.606Z,3.05
2018-09-18T12:03:07.071Z,3.30
2018-09-18T12:08:00.294Z,3.27
2018-09-18T12:12:55.341Z,3.02
2018-09-18T12:17:48.625Z,3.12
2018-09-18T12:22:43.015Z,3.35
2018-09-18T12:27:36.226Z,3.10
2018-09-18T12:32:29.511Z,3.22
2018-09-18T12:37:22.784Z,2.92
2018-09-18T12:42:16.796Z,3.12
2018-09-18T12:47:10.702Z,3.95
2018-09-18T12:52:04.453Z,2.92
2018-09-18T12:56:57.814Z,3.40
2018-09-18T13:01:52.188Z,3.08
2018-09-18T13:06:46.623Z,3.20
2018-09-18T13:11:39.916Z,2.92
2018-09-18T13:16:33.194Z,2.92
2018-09-18T13:21:26.480Z,3.55
2018-09-18T13:26:21.107Z,2.20
2018-09-18T13:31:14.340Z,3.17
2018-09-18T13:36:07.580Z,2.58
2018-09-18T13:41:00.906Z,2.60
2018-09-18T13:45:54.150Z,2.70
2018-09-18T13:50:47.461Z,2.98
2018-09-18T13:55:41.314Z,2.85
2018-09-18T14:00:34.583Z,2.52
2018-09-18T14:05:27.925Z,2.58
2018-09-18T14:10:21.257Z,2.60
2018-09-18T14:15:14.609Z,2.40
2018-09-18T14:20:07.895Z,2.83
2018-09-18T14:25:01.926Z,2.58
2018-09-18T14:29:55.162Z,2.30
2018-09-18T14:34:48.468Z,2.67
2018-09-18T14:39:41.859Z,2.10
2018-09-18T14:44:35.133Z,2.58
2018-09-18T14:49:28.450Z,2.15
2018-09-18T14:54:21.748Z,2.22
2018-09-18T14:59:15.000Z,2.83
2018-09-18T15:04:08.304Z,2.45
2018-09-18T15:09:01.532Z,2.70
2018-09-18T15:13:54.800Z,3.08
2018-09-18T15:18:48.031Z,3.00
2018-09-18T15:23:41.280Z,3.15
2018-09-18T15:28:34.555Z,2.70
2018-09-18T15:33:27.865Z,3.22
2018-09-18T15:38:21.229Z,2.90
2018-09-18T15:43:14.540Z,2.80
2018-09-18T15:48:08.334Z,2.40
2018-09-18T15:53:01.641Z,2.27
2018-09-18T15:57:55.013Z,2.72
2018-09-18T16:02:48.217Z,3.05
2018-09-18T16:07:42.230Z,2.37
2018-09-18T16:12:35.563Z,2.47
2018-09-18T16:17:28.894Z,2.30
2018-09-18T16:22:22.875Z,2.50
2018-09-18T16:27:16.118Z,2.50
2018-09-18T16:32:10.089Z,2.35
2018-09-18T16:42:06.729Z,2.30
2018-09-18T16:47:00.085Z,2.12
2018-09-18T16:51:54.007Z,2.35
2018-09-18T16:56:47.299Z,2.25
2018-09-18T17:01:40.611Z,2.27
2018-09-18T17:06:33.930Z,2.30
2018-09-18T17:11:27.330Z,3.17
2018-09-18T17:16:20.598Z,1.92
2018-09-18T17:21:13.873Z,2.20
2018-09-18T17:26:07.153Z,2.80
2018-09-18T17:31:00.418Z,2.75
2018-09-18T17:35:53.689Z,2.22
2018-09-18T17:40:48.228Z,3.27
2018-09-18T17:45:41.577Z,1.90
2018-09-18T17:50:34.825Z,2.90
2018-09-18T17:55:28.651Z,3.10
2018-09-18T18:00:21.886Z,2.52
2018-09-18T18:05:15.138Z,3.02
2018-09-18T18:10:08.457Z,1.90
2018-09-18T18:15:02.411Z,2.37
2018-09-18T18:19:55.734Z,2.20
2018-09-18T18:24:49.006Z,2.87
2018-09-18T18:29:42.298Z,3.30
2018-09-18T18:34:35.595Z,3.45
2018-09-18T18:45:17.981Z,3.12
2018-09-18T18:50:11.231Z,3.02
2018-09-18T18:55:04.800Z,3.42
2018-09-18T18:59:58.049Z,3.52
2018-09-18T19:05:22.669Z,3.52
2018-09-18T19:10:17.205Z,3.60
2018-09-18T19:15:10.533Z,3.42
2018-09-18T19:20:03.825Z,3.20
2018-09-18T19:24:57.104Z,3.80
2018-09-18T19:29:51.001Z,5.10
2018-09-18T19:34:44.256Z,4.28
2018-09-18T19:39:37.502Z,5.03
2018-09-18T19:44:30.761Z,4.30
2018-09-18T19:49:24.033Z,3.60
2018-09-18T19:54:17.289Z,3.30
2018-09-18T19:59:10.536Z,4.10
2018-09-18T20:04:03.865Z,3.65
2018-09-18T20:08:57.133Z,6.20
2018-09-18T20:13:50.361Z,5.12
2018-09-18T20:18:43.760Z,5.03
2018-09-18T20:23:37.011Z,5.05
2018-09-18T20:28:30.277Z,4.08
2018-09-18T20:33:23.563Z,4.95
2018-09-18T20:38:16.804Z,3.70
2018-09-18T20:43:10.133Z,4.55
2018-09-18T20:48:03.474Z,4.08
2018-09-18T20:52:56.711Z,3.47
2018-09-18T20:57:50.022Z,4.25
2018-09-18T21:02:43.280Z,4.42
2018-09-18T21:07:36.584Z,4.30
2018-09-18T21:12:29.872Z,4.15
2018-09-18T21:17:23.095Z,4.87
2018-09-18T21:22:16.360Z,4.10
2018-09-18T21:27:09.648Z,4.20
2018-09-18T21:32:03.628Z,4.62
2018-09-18T21:36:56.862Z,4.78
2018-09-18T21:41:50.112Z,3.83
2018-09-18T21:46:43.390Z,4.00
2018-09-18T21:51:36.783Z,3.90
2018-09-18T21:56:30.029Z,4.08
2018-09-18T22:01:23.346Z,4.40
2018-09-18T22:06:16.709Z,4.70
2018-09-18T22:11:09.941Z,4.83
2018-09-18T22:16:03.208Z,4.40
2018-09-18T22:20:56.507Z,3.75
2018-09-18T22:25:49.792Z,5.15
2018-09-18T22:30:43.084Z,4.10
2018-09-18T22:35:36.341Z,4.45
2018-09-18T22:40:30.300Z,4.20
2018-09-18T22:45:23.537Z,4.25
2018-09-18T22:50:16.801Z,4.30
2018-09-18T22:55:10.053Z,4.40
2018-09-18T23:00:03.552Z,4.30
2018-09-18T23:04:56.768Z,4.10
2018-09-18T23:09:50.001Z,4.03
2018-09-18T23:14:43.273Z,4.08
2018-09-18T23:19:36.544Z,4.37
2018-09-18T23:24:29.754Z,4.08
2018-09-18T23:29:23.093Z,4.53
2018-09-18T23:34:16.682Z,4.20
2018-09-18T23:39:10.215Z,4.30
2018-09-18T23:44:03.459Z,3.90
2018-09-18T23:48:56.753Z,3.72
2018-09-18T23:53:50.023Z,3.80
2018-09-18T23:58:43.326Z,3.70
